sensor_id;sensor_type;location;lat;lon;timestamp;P1;durP1;ratioP1;P2;durP2;ratioP2
6077;SDS011;3067;49.470;10.394;2023-03-11T00:02:24;1.07;;;1.07;;
6077;SDS011;3067;49.470;10.394;2023-03-11T00:04:51;1.90;;;1.10;;
6077;SDS011;3067;49.470;10.394;2023-03-11T00:07:19;1.00;;;1.00;;
6077;SDS011;3067;49.470;10.394;2023-03-11T00:09:46;1.07;;;1.03;;
6077;SDS011;3067;49.470;10.394;2023-03-11T00:12:15;1.20;;;1.20;;
6077;SDS011;3067;49.470;10.394;2023-03-11T00:14:42;1.10;;;1.10;;
6077;SDS011;3067;49.470;10.394;2023-03-11T00:17:09;1.43;;;1.43;;
6077;SDS011;3067;49.470;10.394;2023-03-11T00:19:36;1.63;;;1.37;;
6077;SDS011;3067;49.470;10.394;2023-03-11T00:22:04;1.33;;;1.23;;
6077;SDS011;3067;49.470;10.394;2023-03-11T00:24:31;1.07;;;1.07;;
6077;SDS011;3067;49.470;10.394;2023-03-11T00:26:58;1.10;;;1.10;;
6077;SDS011;3067;49.470;10.394;2023-03-11T00:29:27;1.43;;;1.30;;
6077;SDS011;3067;49.470;10.394;2023-03-11T00:31:54;1.10;;;1.10;;
6077;SDS011;3067;49.470;10.394;2023-03-11T00:34:21;1.10;;;1.10;;
6077;SDS011;3067;49.470;10.394;2023-03-11T00:36:49;0.90;;;0.90;;
6077;SDS011;3067;49.470;10.394;2023-03-11T00:39:17;1.10;;;1.10;;
6077;SDS011;3067;49.470;10.394;2023-03-11T00:41:44;0.93;;;0.93;;
6077;SDS011;3067;49.470;10.394;2023-03-11T00:44:11;1.10;;;1.10;;
6077;SDS011;3067;49.470;10.394;2023-03-11T00:46:40;1.03;;;1.03;;
6077;SDS011;3067;49.470;10.394;2023-03-11T00:49:07;0.80;;;0.80;;
6077;SDS011;3067;49.470;10.394;2023-03-11T00:51:35;0.80;;;0.80;;
6077;SDS011;3067;49.470;10.394;2023-03-11T00:54:02;1.20;;;1.20;;
6077;SDS011;3067;49.470;10.394;2023-03-11T00:56:29;1.10;;;1.10;;
6077;SDS011;3067;49.470;10.394;2023-03-11T00:58:57;1.00;;;0.93;;
6077;SDS011;3067;49.470;10.394;2023-03-11T01:01:24;1.00;;;1.00;;
6077;SDS011;3067;49.470;10.394;2023-03-11T01:03:53;1.27;;;1.27;;
6077;SDS011;3067;49.470;10.394;2023-03-11T01:06:20;1.20;;;1.20;;
6077;SDS011;3067;49.470;10.394;2023-03-11T01:08:47;1.57;;;1.50;;
6077;SDS011;3067;49.470;10.394;2023-03-11T01:11:15;1.27;;;1.27;;
6077;SDS011;3067;49.470;10.394;2023-03-11T01:13:42;1.80;;;1.63;;
6077;SDS011;3067;49.470;10.394;2023-03-11T01:16:09;1.43;;;1.43;;
6077;SDS011;3067;49.470;10.394;2023-03-11T01:18:36;1.30;;;1.30;;
6077;SDS011;3067;49.470;10.394;2023-03-11T01:21:05;4.47;;;1.13;;
6077;SDS011;3067;49.470;10.394;2023-03-11T01:23:32;1.70;;;1.60;;
6077;SDS011;3067;49.470;10.394;2023-03-11T01:26:00;1.00;;;1.00;;
6077;SDS011;3067;49.470;10.394;2023-03-11T01:28:27;1.20;;;1.20;;
6077;SDS011;3067;49.470;10.394;2023-03-11T01:30:54;7.83;;;1.47;;
6077;SDS011;3067;49.470;10.394;2023-03-11T01:33:22;1.37;;;1.37;;
6077;SDS011;3067;49.470;10.394;2023-03-11T01:35:49;1.17;;;1.17;;
6077;SDS011;3067;49.470;10.394;2023-03-11T01:38:18;1.30;;;1.30;;
6077;SDS011;3067;49.470;10.394;2023-03-11T01:40:46;1.67;;;1.67;;
6077;SDS011;3067;49.470;10.394;2023-03-11T01:46:07;1.43;;;1.43;;
6077;SDS011;3067;49.470;10.394;2023-03-11T01:48:35;1.40;;;1.40;;
6077;SDS011;3067;49.470;10.394;2023-03-11T01:51:03;1.70;;;1.70;;
6077;SDS011;3067;49.470;10.394;2023-03-11T01:53:32;1.10;;;1.10;;
6077;SDS011;3067;49.470;10.394;2023-03-11T01:56:00;0.90;;;0.90;;
6077;SDS011;3067;49.470;10.394;2023-03-11T01:58:30;1.60;;;1.50;;
6077;SDS011;3067;49.470;10.394;2023-03-11T02:00:57;1.93;;;1.43;;
6077;SDS011;3067;49.470;10.394;2023-03-11T02:03:26;1.50;;;1.40;;
6077;SDS011;3067;49.470;10.394;2023-03-11T02:05:55;1.53;;;1.53;;
6077;SDS011;3067;49.470;10.394;2023-03-11T02:08:24;1.23;;;1.23;;
6077;SDS011;3067;49.470;10.394;2023-03-11T02:10:53;1.70;;;1.60;;
6077;SDS011;3067;49.470;10.394;2023-03-11T02:13:20;1.40;;;1.30;;
6077;SDS011;3067;49.470;10.394;2023-03-11T02:15:48;1.17;;;1.17;;
6077;SDS011;3067;49.470;10.394;2023-03-11T02:18:16;0.90;;;0.90;;
6077;SDS011;3067;49.470;10.394;2023-03-11T02:20:46;0.90;;;0.90;;
6077;SDS011;3067;49.470;10.394;2023-03-11T02:23:15;0.80;;;0.80;;
6077;SDS011;3067;49.470;10.394;2023-03-11T02:25:45;1.00;;;1.00;;
6077;SDS011;3067;49.470;10.394;2023-03-11T02:28:15;1.43;;;1.10;;
6077;SDS011;3067;49.470;10.394;2023-03-11T02:30:44;1.10;;;1.10;;
6077;SDS011;3067;49.470;10.394;2023-03-11T02:33:12;1.07;;;1.07;;
6077;SDS011;3067;49.470;10.394;2023-03-11T02:35:40;1.17;;;1.10;;
6077;SDS011;3067;49.470;10.394;2023-03-11T02:38:08;0.90;;;0.90;;
6077;SDS011;3067;49.470;10.394;2023-03-11T02:40:36;1.80;;;1.10;;
6077;SDS011;3067;49.470;10.394;2023-03-11T02:43:05;1.27;;;1.17;;
6077;SDS011;3067;49.470;10.394;2023-03-11T02:45:35;1.70;;;1.20;;
6077;SDS011;3067;49.470;10.394;2023-03-11T02:48:04;1.37;;;0.90;;
6077;SDS011;3067;49.470;10.394;2023-03-11T02:50:32;1.00;;;1.00;;
6077;SDS011;3067;49.470;10.394;2023-03-11T02:53:01;0.97;;;0.97;;
6077;SDS011;3067;49.470;10.394;2023-03-11T02:55:28;0.83;;;0.83;;
6077;SDS011;3067;49.470;10.394;2023-03-11T02:57:56;0.97;;;0.97;;
6077;SDS011;3067;49.470;10.394;2023-03-11T03:00:23;1.03;;;1.03;;
6077;SDS011;3067;49.470;10.394;2023-03-11T03:02:52;1.10;;;1.10;;
6077;SDS011;3067;49.470;10.394;2023-03-11T03:05:19;1.20;;;1.10;;
6077;SDS011;3067;49.470;10.394;2023-03-11T03:07:47;1.37;;;0.90;;
6077;SDS011;3067;49.470;10.394;2023-03-11T03:10:16;1.00;;;1.00;;
6077;SDS011;3067;49.470;10.394;2023-03-11T03:12:43;0.80;;;0.80;;
6077;SDS011;3067;49.470;10.394;2023-03-11T03:15:11;1.10;;;1.10;;
6077;SDS011;3067;49.470;10.394;2023-03-11T03:17:40;0.80;;;0.80;;
6077;SDS011;3067;49.470;10.394;2023-03-11T03:20:09;0.80;;;0.80;;
6077;SDS011;3067;49.470;10.394;2023-03-11T03:22:38;1.47;;;1.37;;
6077;SDS011;3067;49.470;10.394;2023-03-11T03:25:06;0.80;;;0.80;;
6077;SDS011;3067;49.470;10.394;2023-03-11T03:27:33;0.90;;;0.90;;
6077;SDS011;3067;49.470;10.394;2023-03-11T03:30:01;0.90;;;0.90;;
6077;SDS011;3067;49.470;10.394;2023-03-11T03:32:28;1.00;;;1.00;;
6077;SDS011;3067;49.470;10.394;2023-03-11T03:34:56;1.13;;;1.13;;
6077;SDS011;3067;49.470;10.394;2023-03-11T03:37:25;1.20;;;1.20;;
6077;SDS011;3067;49.470;10.394;2023-03-11T03:39:53;0.90;;;0.90;;
6077;SDS011;3067;49.470;10.394;2023-03-11T03:42:20;0.97;;;0.97;;
6077;SDS011;3067;49.470;10.394;2023-03-11T03:44:49;2.47;;;0.80;;
6077;SDS011;3067;49.470;10.394;2023-03-11T03:47:17;1.10;;;1.10;;
6077;SDS011;3067;49.470;10.394;2023-03-11T03:49:45;0.70;;;0.70;;
6077;SDS011;3067;49.470;10.394;2023-03-11T03:52:12;0.70;;;0.70;;
6077;SDS011;3067;49.470;10.394;2023-03-11T03:54:41;0.93;;;0.83;;
6077;SDS011;3067;49.470;10.394;2023-03-11T03:57:08;0.90;;;0.90;;
6077;SDS011;3067;49.470;10.394;2023-03-11T03:59:35;1.73;;;1.17;;
6077;SDS011;3067;49.470;10.394;2023-03-11T04:02:03;0.90;;;0.90;;
6077;SDS011;3067;49.470;10.394;2023-03-11T04:04:30;1.33;;;0.80;;
6077;SDS011;3067;49.470;10.394;2023-03-11T04:06:57;0.73;;;0.70;;
6077;SDS011;3067;49.470;10.394;2023-03-11T04:09:25;6.13;;;1.10;;
6077;SDS011;3067;49.470;10.394;2023-03-11T04:11:54;0.83;;;0.80;;
6077;SDS011;3067;49.470;10.394;2023-03-11T04:14:21;1.27;;;1.17;;
6077;SDS011;3067;49.470;10.394;2023-03-11T04:16:48;1.53;;;0.80;;
6077;SDS011;3067;49.470;10.394;2023-03-11T04:19:16;1.10;;;1.10;;
6077;SDS011;3067;49.470;10.394;2023-03-11T04:21:43;1.00;;;1.00;;
6077;SDS011;3067;49.470;10.394;2023-03-11T04:24:10;0.90;;;0.90;;
6077;SDS011;3067;49.470;10.394;2023-03-11T04:26:38;3.93;;;1.00;;
6077;SDS011;3067;49.470;10.394;2023-03-11T04:29:07;0.80;;;0.80;;
6077;SDS011;3067;49.470;10.394;2023-03-11T04:31:34;1.10;;;1.10;;
6077;SDS011;3067;49.470;10.394;2023-03-11T04:34:01;1.13;;;1.13;;
6077;SDS011;3067;49.470;10.394;2023-03-11T04:36:29;1.10;;;1.10;;
6077;SDS011;3067;49.470;10.394;2023-03-11T04:38:56;1.43;;;0.93;;
6077;SDS011;3067;49.470;10.394;2023-03-11T04:41:23;1.00;;;1.00;;
6077;SDS011;3067;49.470;10.394;2023-03-11T04:43:50;0.77;;;0.77;;
6077;SDS011;3067;49.470;10.394;2023-03-11T04:46:19;1.10;;;1.00;;
6077;SDS011;3067;49.470;10.394;2023-03-11T04:48:46;0.83;;;0.83;;
6077;SDS011;3067;49.470;10.394;2023-03-11T04:51:14;1.00;;;1.00;;
6077;SDS011;3067;49.470;10.394;2023-03-11T04:53:41;1.13;;;1.13;;
6077;SDS011;3067;49.470;10.394;2023-03-11T04:56:08;1.27;;;0.90;;
6077;SDS011;3067;49.470;10.394;2023-03-11T04:58:36;1.20;;;1.20;;
6077;SDS011;3067;49.470;10.394;2023-03-11T05:01:03;1.33;;;1.10;;
6077;SDS011;3067;49.470;10.394;2023-03-11T05:03:32;2.13;;;1.10;;
6077;SDS011;3067;49.470;10.394;2023-03-11T05:06:00;2.03;;;1.27;;
6077;SDS011;3067;49.470;10.394;2023-03-11T05:08:27;1.67;;;1.20;;
6077;SDS011;3067;49.470;10.394;2023-03-11T05:10:54;1.23;;;1.13;;
6077;SDS011;3067;49.470;10.394;2023-03-11T05:13:21;1.13;;;1.13;;
6077;SDS011;3067;49.470;10.394;2023-03-11T05:15:49;3.50;;;1.47;;
6077;SDS011;3067;49.470;10.394;2023-03-11T05:18:16;1.20;;;1.10;;
6077;SDS011;3067;49.470;10.394;2023-03-11T05:20:45;1.53;;;1.20;;
6077;SDS011;3067;49.470;10.394;2023-03-11T05:23:13;3.70;;;1.10;;
6077;SDS011;3067;49.470;10.394;2023-03-11T05:25:40;4.10;;;1.30;;
6077;SDS011;3067;49.470;10.394;2023-03-11T05:28:07;1.00;;;1.00;;
6077;SDS011;3067;49.470;10.394;2023-03-11T05:30:35;4.10;;;1.50;;
6077;SDS011;3067;49.470;10.394;2023-03-11T05:33:02;1.47;;;1.40;;
6077;SDS011;3067;49.470;10.394;2023-03-11T05:35:29;1.17;;;1.07;;
6077;SDS011;3067;49.470;10.394;2023-03-11T05:37:58;1.47;;;1.40;;
6077;SDS011;3067;49.470;10.394;2023-03-11T05:40:25;2.40;;;1.57;;
6077;SDS011;3067;49.470;10.394;2023-03-11T05:42:52;3.73;;;0.93;;
6077;SDS011;3067;49.470;10.394;2023-03-11T05:45:20;1.93;;;1.93;;
6077;SDS011;3067;49.470;10.394;2023-03-11T05:47:47;3.77;;;2.10;;
6077;SDS011;3067;49.470;10.394;2023-03-11T05:50:14;3.40;;;1.70;;
6077;SDS011;3067;49.470;10.394;2023-03-11T05:52:42;2.00;;;1.53;;
6077;SDS011;3067;49.470;10.394;2023-03-11T05:55:10;1.30;;;1.20;;
6077;SDS011;3067;49.470;10.394;2023-03-11T05:57:38;3.93;;;1.70;;
6077;SDS011;3067;49.470;10.394;2023-03-11T06:00:06;1.50;;;1.40;;
6077;SDS011;3067;49.470;10.394;2023-03-11T06:02:36;1.90;;;1.80;;
6077;SDS011;3067;49.470;10.394;2023-03-11T06:05:04;1.50;;;1.40;;
6077;SDS011;3067;49.470;10.394;2023-03-11T06:07:32;1.70;;;1.60;;
6077;SDS011;3067;49.470;10.394;2023-03-11T06:10:00;3.03;;;1.40;;
6077;SDS011;3067;49.470;10.394;2023-03-11T06:12:28;1.43;;;1.33;;
6077;SDS011;3067;49.470;10.394;2023-03-11T06:14:56;1.47;;;1.40;;
6077;SDS011;3067;49.470;10.394;2023-03-11T06:17:23;2.80;;;1.20;;
6077;SDS011;3067;49.470;10.394;2023-03-11T06:19:51;1.00;;;1.00;;
6077;SDS011;3067;49.470;10.394;2023-03-11T06:22:18;1.60;;;1.50;;
6077;SDS011;3067;49.470;10.394;2023-03-11T06:24:45;1.10;;;1.10;;
6077;SDS011;3067;49.470;10.394;2023-03-11T06:27:12;2.50;;;1.33;;
6077;SDS011;3067;49.470;10.394;2023-03-11T06:29:41;1.20;;;1.20;;
6077;SDS011;3067;49.470;10.394;2023-03-11T06:32:08;1.27;;;1.27;;
6077;SDS011;3067;49.470;10.394;2023-03-11T06:34:36;6.60;;;1.30;;
6077;SDS011;3067;49.470;10.394;2023-03-11T06:37:03;1.30;;;1.20;;
6077;SDS011;3067;49.470;10.394;2023-03-11T06:39:31;1.10;;;1.10;;
6077;SDS011;3067;49.470;10.394;2023-03-11T06:41:58;3.43;;;1.20;;
6077;SDS011;3067;49.470;10.394;2023-03-11T06:44:26;1.33;;;1.33;;
6077;SDS011;3067;49.470;10.394;2023-03-11T06:46:54;1.27;;;1.27;;
6077;SDS011;3067;49.470;10.394;2023-03-11T06:49:23;2.10;;;1.90;;
6077;SDS011;3067;49.470;10.394;2023-03-11T06:51:50;3.97;;;1.97;;
6077;SDS011;3067;49.470;10.394;2023-03-11T06:54:18;6.90;;;4.10;;
6077;SDS011;3067;49.470;10.394;2023-03-11T06:56:45;3.27;;;2.83;;
6077;SDS011;3067;49.470;10.394;2023-03-11T06:59:13;2.40;;;2.20;;
6077;SDS011;3067;49.470;10.394;2023-03-11T07:01:40;7.77;;;5.13;;
6077;SDS011;3067;49.470;10.394;2023-03-11T07:04:09;4.23;;;2.53;;
6077;SDS011;3067;49.470;10.394;2023-03-11T07:06:36;6.73;;;2.00;;
6077;SDS011;3067;49.470;10.394;2023-03-11T07:09:04;4.80;;;1.90;;
6077;SDS011;3067;49.470;10.394;2023-03-11T07:11:31;2.20;;;2.10;;
6077;SDS011;3067;49.470;10.394;2023-03-11T07:13:58;2.33;;;2.23;;
6077;SDS011;3067;49.470;10.394;2023-03-11T07:16:27;1.80;;;1.80;;
6077;SDS011;3067;49.470;10.394;2023-03-11T07:18:55;1.60;;;1.50;;
6077;SDS011;3067;49.470;10.394;2023-03-11T07:21:24;1.90;;;1.80;;
6077;SDS011;3067;49.470;10.394;2023-03-11T07:23:52;2.73;;;1.87;;
6077;SDS011;3067;49.470;10.394;2023-03-11T07:26:20;2.87;;;2.23;;
6077;SDS011;3067;49.470;10.394;2023-03-11T07:28:48;1.80;;;1.70;;
6077;SDS011;3067;49.470;10.394;2023-03-11T07:31:16;2.60;;;2.40;;
6077;SDS011;3067;49.470;10.394;2023-03-11T07:33:43;2.50;;;2.20;;
6077;SDS011;3067;49.470;10.394;2023-03-11T07:36:12;6.10;;;2.50;;
6077;SDS011;3067;49.470;10.394;2023-03-11T07:38:41;2.03;;;1.93;;
6077;SDS011;3067;49.470;10.394;2023-03-11T07:41:09;5.93;;;2.03;;
6077;SDS011;3067;49.470;10.394;2023-03-11T07:43:37;1.50;;;1.40;;
6077;SDS011;3067;49.470;10.394;2023-03-11T07:46:05;6.90;;;1.87;;
6077;SDS011;3067;49.470;10.394;2023-03-11T07:48:32;4.77;;;2.43;;
6077;SDS011;3067;49.470;10.394;2023-03-11T07:51:00;1.50;;;1.50;;
6077;SDS011;3067;49.470;10.394;2023-03-11T07:53:28;7.50;;;1.70;;
6077;SDS011;3067;49.470;10.394;2023-03-11T07:55:57;3.13;;;1.57;;
6077;SDS011;3067;49.470;10.394;2023-03-11T07:58:25;1.90;;;1.70;;
6077;SDS011;3067;49.470;10.394;2023-03-11T08:00:53;5.17;;;1.73;;
6077;SDS011;3067;49.470;10.394;2023-03-11T08:03:21;1.33;;;1.33;;
6077;SDS011;3067;49.470;10.394;2023-03-11T08:05:49;3.33;;;1.50;;
6077;SDS011;3067;49.470;10.394;2023-03-11T08:08:17;4.10;;;1.93;;
6077;SDS011;3067;49.470;10.394;2023-03-11T08:10:45;2.03;;;1.93;;
6077;SDS011;3067;49.470;10.394;2023-03-11T08:16:13;2.07;;;1.87;;
6077;SDS011;3067;49.470;10.394;2023-03-11T08:18:41;1.97;;;1.87;;
6077;SDS011;3067;49.470;10.394;2023-03-11T08:21:10;6.80;;;1.70;;
6077;SDS011;3067;49.470;10.394;2023-03-11T08:23:38;2.40;;;2.13;;
6077;SDS011;3067;49.470;10.394;2023-03-11T08:26:06;2.57;;;1.63;;
6077;SDS011;3067;49.470;10.394;2023-03-11T08:28:33;2.17;;;2.00;;
6077;SDS011;3067;49.470;10.394;2023-03-11T08:31:01;7.40;;;1.60;;
6077;SDS011;3067;49.470;10.394;2023-03-11T08:33:30;3.53;;;2.00;;
6077;SDS011;3067;49.470;10.394;2023-03-11T08:35:57;1.93;;;1.83;;
6077;SDS011;3067;49.470;10.394;2023-03-11T08:38:24;2.07;;;1.97;;
6077;SDS011;3067;49.470;10.394;2023-03-11T08:40:52;2.40;;;1.80;;
6077;SDS011;3067;49.470;10.394;2023-03-11T08:43:19;2.33;;;1.60;;
6077;SDS011;3067;49.470;10.394;2023-03-11T08:45:46;1.60;;;1.50;;
6077;SDS011;3067;49.470;10.394;2023-03-11T08:48:14;1.43;;;1.43;;
6077;SDS011;3067;49.470;10.394;2023-03-11T08:50:43;3.10;;;1.57;;
6077;SDS011;3067;49.470;10.394;2023-03-11T08:53:10;1.57;;;1.47;;
6077;SDS011;3067;49.470;10.394;2023-03-11T08:55:37;1.87;;;1.67;;
6077;SDS011;3067;49.470;10.394;2023-03-11T08:58:04;1.70;;;1.70;;
6077;SDS011;3067;49.470;10.394;2023-03-11T09:00:32;2.50;;;1.60;;
6077;SDS011;3067;49.470;10.394;2023-03-11T09:02:59;1.90;;;1.80;;
6077;SDS011;3067;49.470;10.394;2023-03-11T09:05:26;3.67;;;1.77;;
6077;SDS011;3067;49.470;10.394;2023-03-11T09:07:55;1.67;;;1.57;;
6077;SDS011;3067;49.470;10.394;2023-03-11T09:10:25;1.43;;;1.43;;
6077;SDS011;3067;49.470;10.394;2023-03-11T09:12:59;3.60;;;2.10;;
6077;SDS011;3067;49.470;10.394;2023-03-11T09:15:26;2.03;;;1.90;;
6077;SDS011;3067;49.470;10.394;2023-03-11T09:17:54;1.40;;;1.40;;
6077;SDS011;3067;49.470;10.394;2023-03-11T09:20:21;3.73;;;1.57;;
6077;SDS011;3067;49.470;10.394;2023-03-11T09:22:48;1.60;;;1.50;;
6077;SDS011;3067;49.470;10.394;2023-03-11T09:25:17;3.73;;;2.30;;
6077;SDS011;3067;49.470;10.394;2023-03-11T09:27:44;1.47;;;1.47;;
6077;SDS011;3067;49.470;10.394;2023-03-11T09:30:12;2.47;;;1.50;;
6077;SDS011;3067;49.470;10.394;2023-03-11T09:32:39;2.40;;;1.93;;
6077;SDS011;3067;49.470;10.394;2023-03-11T09:35:08;1.40;;;1.40;;
6077;SDS011;3067;49.470;10.394;2023-03-11T09:37:35;1.67;;;1.57;;
6077;SDS011;3067;49.470;10.394;2023-03-11T09:40:03;1.27;;;1.20;;
6077;SDS011;3067;49.470;10.394;2023-03-11T09:42:33;1.20;;;1.20;;
6077;SDS011;3067;49.470;10.394;2023-03-11T09:45:03;1.13;;;1.13;;
6077;SDS011;3067;49.470;10.394;2023-03-11T09:47:35;1.97;;;1.30;;
6077;SDS011;3067;49.470;10.394;2023-03-11T09:50:13;1.60;;;1.60;;
6077;SDS011;3067;49.470;10.394;2023-03-11T09:52:43;1.60;;;1.50;;
6077;SDS011;3067;49.470;10.394;2023-03-11T09:55:19;3.53;;;1.97;;
6077;SDS011;3067;49.470;10.394;2023-03-11T09:57:49;2.30;;;1.60;;
6077;SDS011;3067;49.470;10.394;2023-03-11T10:00:17;1.40;;;1.40;;
6077;SDS011;3067;49.470;10.394;2023-03-11T10:02:44;2.10;;;1.67;;
6077;SDS011;3067;49.470;10.394;2023-03-11T10:05:12;1.23;;;1.23;;
6077;SDS011;3067;49.470;10.394;2023-03-11T10:07:42;2.33;;;2.13;;
6077;SDS011;3067;49.470;10.394;2023-03-11T10:10:12;1.47;;;1.43;;
6077;SDS011;3067;49.470;10.394;2023-03-11T10:12:42;1.50;;;1.40;;
6077;SDS011;3067;49.470;10.394;2023-03-11T10:15:16;1.50;;;1.20;;
6077;SDS011;3067;49.470;10.394;2023-03-11T10:17:47;2.93;;;1.80;;
6077;SDS011;3067;49.470;10.394;2023-03-11T10:20:18;1.67;;;1.60;;
6077;SDS011;3067;49.470;10.394;2023-03-11T10:22:49;1.67;;;1.57;;
6077;SDS011;3067;49.470;10.394;2023-03-11T10:25:20;2.20;;;2.00;;
6077;SDS011;3067;49.470;10.394;2023-03-11T10:27:49;1.80;;;1.70;;
6077;SDS011;3067;49.470;10.394;2023-03-11T10:30:24;2.20;;;2.10;;
6077;SDS011;3067;49.470;10.394;2023-03-11T10:32:53;1.50;;;1.50;;
6077;SDS011;3067;49.470;10.394;2023-03-11T10:35:23;2.63;;;1.23;;
6077;SDS011;3067;49.470;10.394;2023-03-11T10:37:53;4.30;;;1.40;;
6077;SDS011;3067;49.470;10.394;2023-03-11T10:40:27;1.60;;;1.20;;
6077;SDS011;3067;49.470;10.394;2023-03-11T10:42:56;1.33;;;1.33;;
6077;SDS011;3067;49.470;10.394;2023-03-11T10:45:25;1.90;;;1.80;;
6077;SDS011;3067;49.470;10.394;2023-03-11T10:47:55;1.57;;;1.57;;
6077;SDS011;3067;49.470;10.394;2023-03-11T10:50:23;1.60;;;1.50;;
6077;SDS011;3067;49.470;10.394;2023-03-11T10:53:03;3.10;;;2.03;;
6077;SDS011;3067;49.470;10.394;2023-03-11T10:55:31;1.90;;;1.80;;
6077;SDS011;3067;49.470;10.394;2023-03-11T10:58:10;1.77;;;1.60;;
6077;SDS011;3067;49.470;10.394;2023-03-11T11:00:39;2.03;;;1.93;;
6077;SDS011;3067;49.470;10.394;2023-03-11T11:03:11;2.50;;;1.83;;
6077;SDS011;3067;49.470;10.394;2023-03-11T11:05:39;5.43;;;2.53;;
6077;SDS011;3067;49.470;10.394;2023-03-11T11:08:08;2.50;;;2.40;;
6077;SDS011;3067;49.470;10.394;2023-03-11T11:10:47;2.10;;;2.00;;
6077;SDS011;3067;49.470;10.394;2023-03-11T11:13:16;2.63;;;2.43;;
6077;SDS011;3067;49.470;10.394;2023-03-11T11:15:52;3.43;;;2.07;;
6077;SDS011;3067;49.470;10.394;2023-03-11T11:18:20;5.27;;;2.60;;
6077;SDS011;3067;49.470;10.394;2023-03-11T11:20:58;5.43;;;2.00;;
6077;SDS011;3067;49.470;10.394;2023-03-11T11:23:28;3.13;;;2.13;;
6077;SDS011;3067;49.470;10.394;2023-03-11T11:25:57;3.77;;;2.47;;
6077;SDS011;3067;49.470;10.394;2023-03-11T11:28:25;5.23;;;2.10;;
6077;SDS011;3067;49.470;10.394;2023-03-11T11:30:55;2.00;;;1.90;;
6077;SDS011;3067;49.470;10.394;2023-03-11T11:33:24;2.03;;;1.87;;
6077;SDS011;3067;49.470;10.394;2023-03-11T11:35:54;2.07;;;1.97;;
6077;SDS011;3067;49.470;10.394;2023-03-11T11:38:23;1.93;;;1.80;;
6077;SDS011;3067;49.470;10.394;2023-03-11T11:40:51;4.80;;;2.50;;
6077;SDS011;3067;49.470;10.394;2023-03-11T11:43:30;2.60;;;2.10;;
6077;SDS011;3067;49.470;10.394;2023-03-11T11:46:02;4.50;;;2.17;;
6077;SDS011;3067;49.470;10.394;2023-03-11T11:48:32;2.43;;;2.20;;
6077;SDS011;3067;49.470;10.394;2023-03-11T11:51:02;2.60;;;2.50;;
6077;SDS011;3067;49.470;10.394;2023-03-11T11:53:33;2.10;;;2.00;;
6077;SDS011;3067;49.470;10.394;2023-03-11T11:56:03;2.47;;;2.30;;
6077;SDS011;3067;49.470;10.394;2023-03-11T11:58:30;4.40;;;2.70;;
6077;SDS011;3067;49.470;10.394;2023-03-11T12:01:03;1.57;;;1.57;;
6077;SDS011;3067;49.470;10.394;2023-03-11T12:03:46;2.23;;;2.10;;
6077;SDS011;3067;49.470;10.394;2023-03-11T12:06:16;3.53;;;2.20;;
6077;SDS011;3067;49.470;10.394;2023-03-11T12:08:46;3.57;;;2.20;;
6077;SDS011;3067;49.470;10.394;2023-03-11T12:11:17;2.70;;;2.10;;
6077;SDS011;3067;49.470;10.394;2023-03-11T12:13:52;1.83;;;1.83;;
6077;SDS011;3067;49.470;10.394;2023-03-11T12:16:31;2.00;;;1.90;;
6077;SDS011;3067;49.470;10.394;2023-03-11T12:19:02;1.87;;;1.77;;
6077;SDS011;3067;49.470;10.394;2023-03-11T12:21:35;2.07;;;1.97;;
6077;SDS011;3067;49.470;10.394;2023-03-11T12:24:11;1.63;;;1.53;;
6077;SDS011;3067;49.470;10.394;2023-03-11T12:26:44;1.30;;;1.23;;
6077;SDS011;3067;49.470;10.394;2023-03-11T12:29:13;1.77;;;1.67;;
6077;SDS011;3067;49.470;10.394;2023-03-11T12:31:45;1.90;;;1.80;;
6077;SDS011;3067;49.470;10.394;2023-03-11T12:34:13;2.63;;;2.03;;
6077;SDS011;3067;49.470;10.394;2023-03-11T12:36:43;2.30;;;2.20;;
6077;SDS011;3067;49.470;10.394;2023-03-11T12:39:18;2.10;;;2.00;;
6077;SDS011;3067;49.470;10.394;2023-03-11T12:41:47;2.50;;;2.40;;
6077;SDS011;3067;49.470;10.394;2023-03-11T12:44:21;2.17;;;2.07;;
6077;SDS011;3067;49.470;10.394;2023-03-11T12:49:45;2.53;;;2.43;;
6077;SDS011;3067;49.470;10.394;2023-03-11T12:52:17;2.43;;;2.30;;
6077;SDS011;3067;49.470;10.394;2023-03-11T12:54:46;2.50;;;2.20;;
6077;SDS011;3067;49.470;10.394;2023-03-11T13:02:49;2.07;;;1.97;;
6077;SDS011;3067;49.470;10.394;2023-03-11T13:05:24;2.20;;;1.93;;
6077;SDS011;3067;49.470;10.394;2023-03-11T13:07:53;3.07;;;2.13;;
6077;SDS011;3067;49.470;10.394;2023-03-11T13:10:33;1.90;;;1.80;;
6077;SDS011;3067;49.470;10.394;2023-03-11T13:13:01;2.53;;;1.80;;
6077;SDS011;3067;49.470;10.394;2023-03-11T13:15:39;2.17;;;2.07;;
6077;SDS011;3067;49.470;10.394;2023-03-11T13:18:14;2.40;;;2.30;;
6077;SDS011;3067;49.470;10.394;2023-03-11T13:20:53;2.80;;;2.60;;
6077;SDS011;3067;49.470;10.394;2023-03-11T13:23:31;3.03;;;2.30;;
6077;SDS011;3067;49.470;10.394;2023-03-11T13:28:50;2.10;;;2.00;;
6077;SDS011;3067;49.470;10.394;2023-03-11T13:31:22;1.57;;;1.47;;
6077;SDS011;3067;49.470;10.394;2023-03-11T13:33:53;1.77;;;1.67;;
6077;SDS011;3067;49.470;10.394;2023-03-11T13:41:54;3.27;;;2.40;;
6077;SDS011;3067;49.470;10.394;2023-03-11T13:44:24;2.97;;;2.00;;
6077;SDS011;3067;49.470;10.394;2023-03-11T13:46:55;2.23;;;2.03;;
6077;SDS011;3067;49.470;10.394;2023-03-11T13:49:25;2.20;;;1.97;;
6077;SDS011;3067;49.470;10.394;2023-03-11T13:51:54;2.90;;;2.20;;
6077;SDS011;3067;49.470;10.394;2023-03-11T13:54:34;2.13;;;1.93;;
6077;SDS011;3067;49.470;10.394;2023-03-11T13:57:10;3.73;;;2.53;;
6077;SDS011;3067;49.470;10.394;2023-03-11T13:59:39;2.37;;;2.27;;
6077;SDS011;3067;49.470;10.394;2023-03-11T14:02:12;2.17;;;2.07;;
6077;SDS011;3067;49.470;10.394;2023-03-11T14:04:45;2.47;;;2.10;;
6077;SDS011;3067;49.470;10.394;2023-03-11T14:07:13;4.43;;;2.87;;
6077;SDS011;3067;49.470;10.394;2023-03-11T14:09:45;6.67;;;4.13;;
6077;SDS011;3067;49.470;10.394;2023-03-11T14:12:14;2.47;;;2.37;;
6077;SDS011;3067;49.470;10.394;2023-03-11T14:14:43;2.57;;;2.37;;
6077;SDS011;3067;49.470;10.394;2023-03-11T14:17:14;2.50;;;1.80;;
6077;SDS011;3067;49.470;10.394;2023-03-11T14:19:41;2.20;;;2.00;;
6077;SDS011;3067;49.470;10.394;2023-03-11T14:22:09;1.70;;;1.60;;
6077;SDS011;3067;49.470;10.394;2023-03-11T14:24:36;1.93;;;1.83;;
6077;SDS011;3067;49.470;10.394;2023-03-11T14:27:06;1.87;;;1.77;;
6077;SDS011;3067;49.470;10.394;2023-03-11T14:29:36;3.73;;;1.57;;
6077;SDS011;3067;49.470;10.394;2023-03-11T14:32:16;2.47;;;2.27;;
6077;SDS011;3067;49.470;10.394;2023-03-11T14:34:50;1.80;;;1.70;;
6077;SDS011;3067;49.470;10.394;2023-03-11T14:37:23;2.20;;;2.10;;
6077;SDS011;3067;49.470;10.394;2023-03-11T14:39:51;1.87;;;1.77;;
6077;SDS011;3067;49.470;10.394;2023-03-11T14:42:20;2.70;;;2.43;;
6077;SDS011;3067;49.470;10.394;2023-03-11T14:44:53;2.07;;;1.97;;
6077;SDS011;3067;49.470;10.394;2023-03-11T14:47:23;2.47;;;2.27;;
6077;SDS011;3067;49.470;10.394;2023-03-11T14:49:56;4.10;;;1.83;;
6077;SDS011;3067;49.470;10.394;2023-03-11T14:52:31;3.13;;;1.90;;
6077;SDS011;3067;49.470;10.394;2023-03-11T14:55:01;1.97;;;1.87;;
6077;SDS011;3067;49.470;10.394;2023-03-11T14:57:31;3.03;;;2.10;;
6077;SDS011;3067;49.470;10.394;2023-03-11T15:00:02;7.40;;;2.67;;
6077;SDS011;3067;49.470;10.394;2023-03-11T15:02:35;2.00;;;1.90;;
6077;SDS011;3067;49.470;10.394;2023-03-11T15:05:05;2.37;;;2.17;;
6077;SDS011;3067;49.470;10.394;2023-03-11T15:07:34;2.50;;;2.30;;
6077;SDS011;3067;49.470;10.394;2023-03-11T15:10:05;2.80;;;2.60;;
6077;SDS011;3067;49.470;10.394;2023-03-11T15:12:40;3.87;;;2.90;;
6077;SDS011;3067;49.470;10.394;2023-03-11T15:15:25;2.90;;;2.80;;
6077;SDS011;3067;49.470;10.394;2023-03-11T15:17:53;2.50;;;2.30;;
6077;SDS011;3067;49.470;10.394;2023-03-11T15:20:24;2.47;;;2.27;;
6077;SDS011;3067;49.470;10.394;2023-03-11T15:22:55;3.27;;;2.60;;
6077;SDS011;3067;49.470;10.394;2023-03-11T15:25:25;3.27;;;2.70;;
6077;SDS011;3067;49.470;10.394;2023-03-11T15:27:52;2.90;;;2.60;;
6077;SDS011;3067;49.470;10.394;2023-03-11T15:30:21;3.33;;;2.20;;
6077;SDS011;3067;49.470;10.394;2023-03-11T15:32:50;3.30;;;3.07;;
6077;SDS011;3067;49.470;10.394;2023-03-11T15:35:18;2.37;;;2.17;;